Date,TemperatureHighF,TemperatureAvgF,TemperatureLowF,DewpointHighF,DewpointAvgF,DewpointLowF,HumidityHigh,HumidityAvg,HumidityLow,PressureMaxIn,PressureMinIn,WindSpeedMaxMPH,WindSpeedAvgMPH,GustSpeedMaxMPH,PrecipitationSumIn
2013-1-1,48.5,35.4,29.1,42.3,32.7,28.6,99,90,67,30.38,30.23,1,0,6,0.00
2013-1-2,52.8,35.7,28.6,38.5,31.2,27.3,97,85,51,30.24,30.10,3,0,7,0.00
2013-1-3,48.3,38.6,29.0,48.0,34.4,27.3,99,86,57,30.23,30.05,5,1,8,0.46
2013-1-4,55.4,46.1,39.1,50.3,44.5,38.4,99,95,77,30.30,30.12,1,0,6,0.10
2013-1-5,49.6,44.3,40.2,44.3,42.1,39.7,99,92,81,30.17,30.07,4,0,6,0.12
2013-1-6,50.4,44.6,38.3,47.6,43.3,37.8,99,95,84,30.21,30.07,1,0,6,0.18
2013-1-7,51.5,49.0,45.2,50.9,48.4,44.7,99,98,95,30.23,30.02,5,1,13,0.84
2013-1-8,51.7,50.2,47.0,51.0,49.5,46.7,99,98,95,30.21,29.94,3,1,8,0.54
2013-1-9,50.0,41.7,35.6,48.5,40.6,35.1,98,96,86,30.00,29.81,5,0,14,0.77
2013-1-10,42.5,36.3,32.9,41.4,35.7,32.3,99,98,94,30.14,29.99,3,0,14,0.58
2013-1-11,46.4,35.1,30.0,41.8,33.5,29.4,99,94,63,30.30,30.12,2,0,14,0.07
2013-1-12,44.2,32.3,27.4,37.5,30.4,26.7,98,93,65,30.39,30.27,3,0,14,0.00
2013-1-13,40.7,30.2,24.0,35.3,28.1,23.0,98,92,71,30.47,30.38,2,0,14,0.00
2013-1-14,41.6,34.1,27.4,37.4,31.8,25.8,98,91,77,30.54,30.47,1,0,14,0.02
2013-1-15,48.2,37.1,29.0,44.2,36.0,28.3,99,96,83,30.63,30.53,3,0,14,0.00
2013-1-16,50.4,33.5,25.8,44.0,31.6,25.1,98,93,72,30.61,30.42,2,0,14,0.00
2013-1-17,53.6,34.4,25.8,43.7,31.8,25.1,99,91,63,30.42,30.23,2,0,5,0.00
2013-1-18,57.2,35.3,26.3,49.2,33.3,25.6,98,93,68,30.25,30.19,0,0,0,0.00
2013-1-19,52.3,36.9,25.8,45.8,35.0,25.1,98,93,74,30.29,30.21,4,0,5,0.00
2013-1-20,53.7,35.5,27.4,46.2,33.4,26.6,98,93,63,30.30,30.17,1,0,3,0.00
2013-1-21,55.1,33.7,24.3,40.8,30.1,23.3,98,89,46,30.22,30.07,2,0,5,0.00
2013-1-22,59.5,39.3,26.0,38.8,32.7,25.1,98,80,38,30.10,29.89,4,1,8,0.00
2013-1-23,45.7,41.2,36.9,44.9,39.4,35.6,98,93,78,30.12,29.85,3,0,7,0.47
2013-1-24,51.2,45.1,31.5,47.4,43.6,31.0,99,95,83,30.14,30.06,2,0,5,0.15
2013-1-25,51.5,46.8,40.6,51.0,46.1,39.8,99,97,93,30.12,29.95,4,0,6,0.44
2013-1-26,48.2,42.0,38.2,45.3,41.2,37.7,99,97,83,30.11,29.94,5,0,16,0.46
2013-1-27,42.7,39.5,34.5,42.4,39.1,34.1,99,99,98,30.17,30.06,2,0,6,0.88
2013-1-28,46.0,43.7,40.4,44.9,42.9,40.0,99,97,94,30.28,30.11,4,1,11,0.56
2013-1-29,46.9,45.3,44.0,45.7,44.6,43.6,99,97,95,30.51,30.28,6,2,10,0.17
2013-1-30,49.4,46.7,44.3,49.4,46.4,44.0,100,99,97,30.50,30.45,4,0,7,0.62
2013-1-31,55.2,47.2,43.0,50.9,45.5,42.7,100,94,69,30.46,30.34,3,0,6,0.00
2013-2-1,61.7,45.6,35.9,50.9,43.3,35.4,99,93,58,30.34,30.21,3,0,4,0.00
2013-2-2,60.7,43.0,30.6,51.4,40.2,30.0,99,91,57,30.31,30.21,5,0,8,0.00
2013-2-3,48.6,46.2,44.2,47.0,45.2,43.5,98,96,90,30.32,30.22,1,0,3,0.00
2013-2-4,53.1,46.1,41.2,47.1,43.7,40.6,99,92,75,30.23,29.97,4,0,9,0.00
2013-2-5,50.9,46.9,44.4,48.0,45.3,43.1,98,94,85,30.06,29.91,7,1,21,0.59
2013-2-6,48.4,44.8,40.1,46.7,43.7,39.1,99,96,90,30.09,29.83,6,0,11,0.53
2013-2-7,47.7,40.4,35.2,44.0,39.1,34.4,99,95,83,30.15,29.94,2,0,4,0.11
2013-2-8,49.6,37.4,30.4,43.9,35.0,29.9,99,92,71,30.28,30.15,6,1,10,0.00
2013-2-9,47.6,41.0,32.9,45.9,40.3,32.1,99,97,92,30.30,30.26,3,0,4,0.03
2013-2-10,48.5,44.6,41.4,45.6,42.7,41.1,99,93,82,30.33,30.28,2,0,6,0.00
2013-2-11,48.7,44.7,41.3,46.1,43.2,40.5,98,95,79,30.40,30.32,4,0,5,0.20
2013-2-12,50.2,47.3,45.1,49.4,46.7,44.6,99,98,94,30.49,30.40,3,0,5,0.26
2013-2-13,50.6,47.0,43.4,48.4,46.0,42.6,99,96,87,30.51,30.44,3,0,5,0.15
2013-2-14,56.2,45.7,39.6,50.6,44.0,39.3,99,94,77,30.55,30.45,7,1,10,0.00
2013-2-15,66.0,46.2,35.2,56.3,43.8,34.7,99,92,64,30.45,30.17,3,0,4,0.00
2013-2-16,49.7,45.2,39.5,47.4,44.1,38.1,99,96,87,30.30,30.24,4,1,8,0.16
2013-2-17,47.2,40.1,35.4,42.7,38.3,34.9,99,94,71,30.31,30.08,4,0,8,0.06
2013-2-18,45.3,39.7,34.3,43.3,38.7,33.8,99,96,87,30.08,29.70,1,0,3,0.25
2013-2-19,49.7,41.0,32.8,44.6,38.9,32.0,98,92,75,30.02,29.64,5,1,11,0.15
2013-2-20,44.9,37.4,31.1,44.1,36.7,30.6,99,98,91,30.12,30.02,4,0,8,0.43
2013-2-21,45.0,41.3,37.6,44.1,40.8,37.2,99,98,95,30.23,30.12,3,0,6,0.33
2013-2-22,48.6,44.2,38.6,47.5,43.3,37.6,99,96,87,30.19,29.94,7,1,13,1.12
2013-2-23,47.8,40.9,36.7,42.9,38.5,35.9,99,91,70,30.45,30.10,6,1,12,0.24
2013-2-24,53.1,43.7,36.7,43.0,39.0,36.1,99,85,56,30.44,30.07,6,1,8,0.14
2013-2-25,48.2,43.1,35.8,46.5,40.3,35.0,98,90,69,30.40,30.05,8,1,13,0.46
2013-2-26,51.9,40.7,31.6,43.1,37.2,31.1,99,88,59,30.39,30.23,4,0,9,0.00
2013-2-27,49.4,46.9,41.9,48.8,45.7,40.3,98,96,89,30.28,30.19,2,0,4,0.23
2013-2-28,52.4,51.0,49.2,51.9,50.5,48.4,99,98,97,30.45,30.19,2,0,9,1.04
2013-3-1,55.9,50.9,44.0,53.4,49.9,43.4,99,96,87,30.47,30.32,2,0,7,0.08
2013-3-2,53.0,46.0,38.6,50.7,45.1,37.8,100,97,91,30.33,30.20,3,1,7,0.02
2013-3-3,50.1,39.5,32.6,42.8,36.9,32.1,99,91,69,30.33,30.21,6,1,10,0.01
2013-3-4,56.9,40.6,29.6,46.3,36.0,29.1,99,86,46,30.21,29.87,4,1,9,0.00
2013-3-5,45.3,42.5,35.5,44.0,41.8,34.7,99,97,94,29.87,29.59,3,0,4,0.43
2013-3-6,47.8,44.0,41.0,45.4,43.0,40.2,99,96,89,29.95,29.54,4,0,8,0.33
2013-3-7,54.1,42.7,32.6,44.5,38.8,32.0,99,88,62,30.03,29.95,6,1,8,0.00
2013-3-8,53.2,40.4,31.0,46.0,37.7,30.5,99,91,72,30.22,30.02,8,1,12,0.00
2013-3-9,58.2,42.1,32.5,47.1,38.7,31.7,99,89,57,30.50,30.22,6,1,8,0.00
2013-3-10,52.1,42.7,32.6,48.0,41.1,32.0,99,95,70,30.50,30.40,2,0,5,0.02
2013-3-11,54.8,49.4,45.0,51.7,48.4,44.6,99,96,83,30.42,30.23,2,0,5,0.02
2013-3-12,58.9,50.7,46.9,52.5,48.3,45.4,99,92,71,30.24,30.18,5,1,9,0.00
2013-3-13,61.8,50.6,44.7,52.5,46.9,44.0,98,88,65,30.24,30.10,5,1,7,0.00
2013-3-14,53.5,49.0,45.5,50.3,47.1,44.3,98,93,80,30.22,30.06,3,0,9,0.26
2013-3-15,56.5,51.3,47.3,53.4,50.1,46.7,99,96,87,30.23,30.20,4,0,7,0.03
2013-3-16,49.9,46.0,38.3,48.1,44.9,37.1,99,96,87,30.20,30.05,5,1,10,0.40
2013-3-17,49.3,41.0,34.6,41.9,38.1,34.1,99,90,65,30.32,30.19,5,1,8,0.05
2013-3-18,52.7,42.0,33.7,44.9,39.0,33.2,99,90,69,30.30,30.09,6,1,10,0.01
2013-3-19,52.1,45.2,35.6,50.8,42.6,34.8,99,91,72,30.09,29.65,5,1,9,0.59
2013-3-20,53.6,47.3,37.2,51.1,43.9,34.4,96,88,67,30.21,29.57,9,4,17,0.39
2013-3-21,47.8,41.0,36.6,42.1,38.3,35.4,98,90,67,30.34,30.20,6,1,10,0.13
2013-3-22,46.9,38.6,32.2,41.4,36.0,31.2,98,91,67,30.40,30.32,6,1,15,0.18
2013-3-23,50.5,39.0,31.8,39.2,34.9,30.9,98,87,58,30.40,30.25,5,1,8,0.01
2013-3-24,54.7,43.8,35.8,41.9,38.1,35.0,98,82,51,30.26,30.08,5,1,9,0.00
2013-3-25,56.7,43.5,35.5,45.5,39.3,34.5,98,86,61,30.08,29.93,6,1,9,0.00
2013-3-26,52.3,45.0,35.5,48.6,43.5,34.5,98,95,83,30.02,29.94,3,0,4,0.01
2013-3-27,60.3,49.4,42.1,51.8,47.2,41.6,99,93,68,29.98,29.90,5,0,8,0.02
2013-3-28,60.2,51.7,44.3,53.9,49.0,43.5,99,91,75,30.14,29.98,5,1,9,0.01
2013-3-29,65.3,52.3,42.9,55.6,48.8,41.8,98,89,68,30.19,30.11,7,1,10,0.00
2013-3-30,78.2,55.4,39.8,58.9,48.7,39.3,99,82,42,30.15,29.92,5,1,9,0.00
2013-3-31,65.9,54.9,44.5,55.6,50.1,43.5,98,85,63,30.03,29.96,6,1,8,0.00
2013-4-1,56.1,52.6,50.5,52.7,50.6,48.6,97,93,85,30.19,30.03,3,0,5,0.01
2013-4-2,57.8,51.6,48.5,52.5,49.2,47.3,98,92,81,30.22,30.15,5,1,9,0.01
2013-4-3,66.1,53.8,43.7,57.3,50.0,42.9,98,88,66,30.17,29.89,5,1,7,0.00
2013-4-4,55.9,52.8,50.6,54.8,51.8,49.9,99,96,92,29.91,29.68,5,1,12,0.56
2013-4-5,53.0,51.8,50.6,51.2,50.5,49.8,98,95,92,29.97,29.82,6,2,18,0.70
2013-4-6,52.9,50.4,46.6,51.0,48.2,45.3,98,92,85,30.02,29.68,7,2,14,0.80
2013-4-7,52.4,47.0,41.3,51.1,44.9,40.5,98,93,84,29.99,29.62,10,3,25,0.39
2013-4-8,52.1,44.4,38.7,47.5,41.8,37.8,99,91,72,30.31,29.99,6,1,9,0.09
2013-4-9,60.5,48.4,38.5,50.6,43.9,37.7,98,86,53,30.34,30.24,4,0,6,0.00
2013-4-10,52.8,49.3,42.7,51.7,47.1,41.4,98,93,77,30.35,30.18,6,1,11,0.25
2013-4-11,54.1,47.1,39.2,47.3,43.5,37.9,99,88,74,30.36,30.17,6,2,10,0.01
2013-4-12,53.5,43.7,35.8,46.9,41.1,35.3,99,91,69,30.17,29.91,5,1,9,0.15
2013-4-13,50.5,44.0,39.1,43.1,40.3,36.1,97,87,63,30.14,29.98,8,2,13,0.24
2013-4-14,48.4,42.6,37.5,44.2,40.5,36.4,98,93,77,30.11,29.95,5,1,7,0.32
2013-4-15,51.4,44.0,37.1,44.0,40.2,36.3,98,87,66,30.19,29.97,6,1,13,0.17
2013-4-16,55.4,44.9,35.0,47.2,40.9,34.0,98,87,68,30.41,30.19,7,2,12,0.00
2013-4-17,55.7,45.3,35.5,48.1,41.7,34.4,99,88,70,30.49,30.41,7,1,9,0.00
2013-4-18,57.8,50.0,40.7,48.8,45.4,39.4,97,85,61,30.48,30.35,6,1,8,0.00
2013-4-19,51.9,50.0,48.4,51.1,49.3,47.6,98,97,95,30.36,30.20,5,1,10,0.60
2013-4-20,53.9,48.9,43.9,48.8,46.2,42.1,98,90,76,30.36,30.30,4,1,7,0.02
2013-4-21,53.9,48.3,44.5,49.0,46.1,43.7,98,92,82,30.32,30.26,4,1,6,0.01
2013-4-22,65.6,50.6,37.7,48.0,38.9,28.7,99,71,26,30.38,30.30,6,1,11,0.00
2013-4-23,65.0,48.7,32.4,46.4,38.7,31.6,99,73,33,30.34,30.14,8,2,12,0.00
2013-4-24,76.2,55.9,34.0,52.3,39.3,27.4,99,63,18,30.20,29.99,6,1,9,0.00
2013-4-25,65.0,50.4,35.0,52.0,44.4,34.0,99,82,49,30.17,30.01,7,2,11,0.00
2013-4-26,71.9,53.8,42.0,53.8,46.2,39.8,98,79,43,30.25,30.16,8,2,13,0.00
2013-4-27,62.7,49.9,40.1,51.0,45.8,38.6,98,87,57,30.32,30.25,7,2,9,0.00
2013-4-28,58.9,53.2,49.7,52.8,49.2,47.0,98,87,68,30.30,30.15,6,1,8,0.18
2013-4-29,54.5,49.5,37.7,51.1,43.4,35.3,97,81,53,30.24,30.12,8,2,13,0.09
2013-4-30,53.9,44.2,34.8,43.7,37.8,33.8,98,80,54,30.44,30.24,6,2,12,0.03
2013-5-1,62.7,47.4,30.3,50.8,40.0,29.3,98,78,51,30.49,30.39,7,2,11,0.00
2013-5-2,72.1,52.5,35.1,50.6,42.0,34.2,98,73,30,30.41,30.23,8,2,11,0.00
2013-5-3,68.7,52.0,34.5,53.7,44.7,33.5,98,78,50,30.30,30.11,8,2,11,0.00
2013-5-4,81.9,61.3,38.7,58.6,42.4,34.6,98,61,19,30.12,29.83,7,2,15,0.00
2013-5-5,84.9,65.4,45.7,48.8,43.9,35.6,92,55,20,29.85,29.63,7,2,13,0.00
2013-5-6,65.7,54.7,41.6,54.5,48.7,40.5,98,82,61,29.97,29.82,6,1,12,0.00
2013-5-7,58.1,53.7,51.8,52.1,49.4,48.1,91,85,77,30.07,29.94,5,1,12,0.00
2013-5-8,59.6,53.8,51.0,53.1,49.9,48.8,94,87,76,30.18,30.07,6,1,12,0.00
2013-5-9,64.1,54.4,46.1,56.3,50.3,44.4,96,86,73,30.20,30.10,8,2,12,0.00
2013-5-10,64.1,53.2,45.7,56.7,50.3,44.4,97,90,74,30.25,30.16,6,1,12,0.00
2013-5-11,75.3,60.4,49.0,61.1,52.8,44.3,96,78,42,30.24,30.04,7,1,12,0.00
2013-5-12,64.3,58.3,54.6,56.3,55.1,53.3,97,89,72,30.15,30.08,5,0,12,0.13
2013-5-13,58.8,54.5,47.4,55.2,52.7,46.2,98,94,82,30.23,30.06,6,1,12,0.07
2013-5-14,60.2,50.8,42.4,50.2,45.4,41.3,99,83,57,30.23,30.13,6,1,12,0.00
2013-5-15,59.3,50.1,41.3,53.7,48.0,40.2,98,93,75,30.14,30.00,4,0,12,0.07
2013-5-16,58.1,54.6,50.8,54.1,51.6,49.2,98,90,75,30.00,29.94,6,1,10,0.07
2013-5-17,60.7,52.7,44.5,52.7,48.3,43.2,99,86,66,30.11,29.99,6,1,9,0.00
2013-5-18,56.9,52.4,44.4,55.5,51.1,43.2,98,96,87,30.28,30.10,2,0,5,0.20
2013-5-19,59.7,54.2,44.0,53.4,49.3,42.3,97,84,68,30.42,30.28,6,2,15,0.00
2013-5-20,63.5,50.9,39.0,53.2,46.5,38.0,98,86,65,30.35,29.95,7,2,12,0.02
2013-5-21,50.0,47.2,42.4,47.9,45.6,41.3,97,94,87,30.01,29.88,5,1,11,0.81
2013-5-22,53.7,47.3,42.5,50.6,46.3,41.7,98,96,87,29.99,29.93,5,1,10,0.73
2013-5-23,54.2,49.6,47.2,50.5,48.3,46.7,98,95,81,30.02,29.97,4,0,9,0.88
2013-5-24,55.5,50.6,47.0,52.2,48.9,46.5,98,94,81,30.09,29.99,5,1,7,0.23
2013-5-25,61.6,53.7,47.6,52.6,49.5,46.8,98,86,64,30.08,29.93,5,1,9,0.06
2013-5-26,56.7,53.4,51.1,53.1,51.1,49.1,98,92,80,30.06,29.93,4,1,8,0.11
2013-5-27,57.5,53.6,51.4,56.1,52.3,49.8,98,95,90,29.97,29.74,5,1,10,1.43
2013-5-28,58.2,53.6,51.0,52.6,50.8,48.3,98,91,72,29.96,29.75,5,1,8,0.32
2013-5-31,63.9,58.1,46.7,54.3,50.7,45.1,96,77,67,30.29,30.23,7,2,11,0.00
2013-6-1,68.9,55.6,44.9,58.0,50.3,43.9,99,84,57,30.25,30.07,6,1,10,0.00
2013-6-2,63.7,57.3,48.9,56.5,52.5,46.6,94,84,75,30.10,30.05,9,3,13,0.00
2013-6-3,64.3,54.4,43.7,55.6,49.8,42.6,98,85,70,30.11,30.04,9,3,14,0.00
2013-6-4,69.4,55.2,41.2,59.4,50.0,40.1,98,84,64,30.08,29.98,8,2,12,0.00
2013-6-5,67.3,56.4,45.2,60.1,53.0,44.1,98,89,75,30.09,30.01,10,3,16,0.00
2013-6-6,64.9,56.9,48.5,57.0,52.9,46.6,95,87,75,30.08,30.03,8,2,14,0.00
2013-6-7,69.7,57.0,46.0,57.7,51.5,43.6,98,83,40,30.15,30.08,7,2,11,0.00
2013-6-8,65.8,53.9,47.7,55.5,50.3,46.6,98,89,65,30.16,30.11,8,1,13,0.00
2013-6-12,59.6,55.9,51.8,52.8,50.3,49.1,95,82,73,30.21,30.18,6,2,10,0.05
2013-6-13,60.7,55.0,51.4,55.8,52.6,50.2,98,92,76,30.31,30.17,6,1,10,0.98
2013-6-14,66.1,57.6,48.3,56.8,53.2,46.9,98,86,68,30.30,29.97,8,2,12,0.00
2013-6-15,65.3,55.6,46.2,59.3,52.5,45.6,99,90,76,30.05,29.93,5,1,9,0.01
2013-6-16,57.1,55.9,55.3,54.5,53.3,51.9,95,91,84,30.14,30.05,1,0,6,0.00
2013-6-17,68.9,57.7,48.3,58.0,53.3,46.9,98,86,57,30.12,30.01,5,1,10,0.09
2013-6-18,61.2,55.9,48.9,55.6,52.9,48.1,98,90,79,30.01,29.96,6,1,11,0.04
2013-6-19,61.7,56.2,52.2,56.2,53.2,51.5,98,90,71,30.11,29.96,6,1,8,0.15
2013-6-20,63.9,57.3,50.8,57.0,53.5,49.6,98,88,67,30.14,30.06,6,1,10,0.18
2013-6-21,66.7,57.7,49.6,56.7,52.5,48.3,98,84,62,30.17,30.10,6,2,9,0.01
2013-6-22,76.6,59.9,46.6,62.3,52.2,45.5,99,79,42,30.11,29.86,5,1,7,0.02
2013-6-23,65.7,60.4,56.8,61.7,58.8,55.6,99,95,85,29.86,29.64,4,0,7,0.16
2013-6-24,61.5,57.5,54.8,57.4,55.6,54.0,98,94,79,29.72,29.65,4,0,9,0.49
2013-6-25,62.6,58.7,55.8,59.9,57.0,55.2,98,94,80,29.85,29.67,4,1,13,0.41
2013-6-26,69.3,62.4,57.8,62.6,59.4,57.0,99,90,72,30.01,29.83,5,1,7,0.15
2013-6-27,71.7,63.7,56.9,64.2,61.0,55.8,99,91,74,30.16,29.97,5,0,8,0.01
2013-6-28,79.5,66.7,56.9,69.4,60.9,56.1,99,84,61,30.15,30.06,6,1,8,0.00
2013-6-29,81.2,66.4,55.4,66.3,60.0,54.6,99,82,57,30.11,29.97,8,2,11,0.00
2013-6-30,75.5,64.6,54.7,67.5,60.1,53.6,99,86,65,29.97,29.90,7,2,10,0.00
2013-7-1,70.8,64.6,60.9,65.0,61.4,59.3,95,89,80,30.06,29.93,8,3,11,0.00
2013-7-2,70.6,63.8,58.9,63.7,59.7,56.2,94,87,75,30.09,30.04,8,3,13,0.00
2013-7-3,70.3,60.5,51.8,61.7,55.2,50.7,98,84,65,30.14,30.07,8,2,12,0.00
2013-7-4,69.0,60.5,48.3,57.5,53.1,46.9,98,77,62,30.14,30.05,8,3,17,0.00
2013-7-5,67.3,62.3,57.5,57.7,54.3,51.3,82,75,67,30.07,29.96,7,3,15,0.00
2013-7-6,68.6,58.7,45.3,59.1,53.4,43.9,98,83,68,29.99,29.88,7,2,15,0.00
2013-7-7,67.5,60.1,49.8,58.5,54.8,48.4,97,83,69,29.99,29.92,8,2,15,0.00
2013-7-8,68.6,58.3,45.0,59.0,53.2,43.9,98,84,66,30.07,29.98,9,2,15,0.00
2013-7-9,67.5,58.1,49.2,60.6,55.0,47.9,98,90,77,30.09,30.02,9,3,15,0.00
2013-7-10,66.0,58.1,45.4,57.6,51.8,44.6,99,81,65,30.08,29.97,9,3,15,0.00
2013-7-11,68.0,60.1,51.3,55.7,50.0,46.9,87,70,55,30.06,29.98,7,2,12,0.00
2013-7-12,66.8,55.3,40.5,53.6,47.8,39.3,98,78,57,30.10,30.00,8,2,13,0.00
2013-7-13,70.0,55.7,39.7,56.6,49.3,38.6,98,81,60,30.15,30.02,8,2,12,0.00
2013-7-14,69.6,56.2,44.6,57.4,50.6,43.3,98,83,62,30.10,29.98,9,2,13,0.00
2013-7-15,72.3,57.1,42.3,59.4,51.1,41.2,98,82,55,30.02,29.80,8,3,13,0.00
2013-7-16,69.0,56.2,45.8,60.7,53.4,44.7,98,91,72,30.02,29.77,4,1,10,0.00
2013-7-17,65.5,59.0,47.9,57.4,55.1,46.3,97,87,73,30.19,30.02,5,1,9,0.01
2013-7-18,67.5,56.2,44.0,59.9,51.5,42.9,98,85,68,30.21,30.10,9,3,14,0.00
2013-7-19,66.2,56.1,43.4,57.8,52.0,42.1,98,87,73,30.15,30.05,9,2,14,0.00
2013-7-20,65.9,58.9,54.2,58.4,54.3,51.9,93,85,74,30.09,29.98,8,3,13,0.00
2013-7-21,68.8,59.2,48.1,60.2,54.7,46.6,98,86,71,30.00,29.90,8,2,12,0.00
2013-7-22,69.5,60.6,51.8,60.1,55.5,50.1,95,84,70,30.03,29.95,8,2,12,0.00
2013-7-23,68.2,56.8,50.8,60.0,53.6,50.0,98,90,72,30.04,29.98,9,3,12,0.00
2013-7-24,66.2,56.0,49.9,57.9,52.7,49.1,98,89,72,30.06,30.00,9,3,14,0.00
2013-7-25,69.7,57.9,48.8,59.1,53.0,46.8,98,85,65,30.09,30.01,9,3,13,0.00
2013-7-26,68.8,57.3,43.2,58.1,51.5,41.9,98,82,65,30.17,30.06,9,2,13,0.00
2013-7-27,67.3,58.3,45.3,57.1,52.4,43.7,98,82,67,30.19,30.05,7,3,13,0.00
2013-7-28,67.6,59.4,48.2,58.1,53.3,46.8,97,81,67,30.07,29.97,6,2,11,0.00
2013-7-29,66.0,57.2,46.1,57.0,52.2,44.4,97,84,69,30.06,29.97,6,1,11,0.00
2013-7-30,67.0,60.0,55.4,59.3,55.4,52.5,92,85,74,30.15,30.06,7,2,12,0.00
2013-7-31,62.8,59.2,56.8,57.3,56.0,54.8,97,89,80,30.13,30.07,4,1,10,0.00
2013-8-1,63.7,58.8,56.4,58.6,56.9,55.6,98,93,83,30.12,30.07,5,1,10,0.07
2013-8-2,65.8,59.9,51.1,59.6,57.1,49.7,98,91,77,30.13,30.09,4,1,10,0.06
2013-8-3,69.9,59.6,49.6,62.0,55.9,48.4,98,88,73,30.10,29.99,8,2,12,0.00
2013-8-4,65.1,57.9,52.2,59.6,55.6,50.8,98,92,80,30.03,29.96,8,3,14,0.00
2013-8-5,65.5,56.9,52.4,58.3,54.1,50.6,98,91,75,30.04,29.95,8,3,12,0.00
2013-8-6,70.8,57.9,50.9,59.4,53.8,50.1,98,87,64,30.00,29.93,8,2,12,0.00
2013-8-7,62.5,55.7,52.0,57.9,53.7,51.2,98,93,83,30.07,29.98,5,1,10,0.00
2013-8-8,70.4,59.0,52.1,63.0,56.2,50.8,98,91,76,30.06,29.93,8,2,11,0.00
2013-8-9,69.8,59.7,52.5,61.6,56.6,51.4,97,90,74,29.97,29.86,8,2,12,0.00
2013-8-10,64.8,59.9,56.4,58.4,56.8,54.1,96,89,78,30.06,29.93,6,1,10,0.00
2013-8-11,64.3,59.5,55.7,59.0,56.7,53.8,97,90,80,30.07,30.02,3,0,10,0.00
2013-8-12,69.7,60.6,48.1,60.1,55.2,46.6,97,84,62,30.08,30.03,5,1,12,0.00
2013-8-13,75.0,58.5,45.0,59.1,52.1,43.8,99,81,55,30.10,29.94,8,2,10,0.00
2013-8-14,74.8,63.0,48.6,63.7,57.6,47.3,98,84,52,29.99,29.93,5,1,10,0.14
2013-8-15,69.3,64.3,62.0,66.9,63.2,61.2,98,96,89,29.98,29.91,3,0,5,0.12
2013-8-16,72.8,64.8,54.3,66.5,61.0,53.2,99,89,61,30.06,29.95,5,1,7,0.00
2013-8-17,70.0,61.3,52.4,63.4,58.7,51.5,99,91,78,30.10,30.04,3,0,5,0.00
2013-8-18,74.3,62.7,51.6,63.7,58.1,50.6,99,86,65,30.12,30.04,7,2,11,0.00
2013-8-19,73.9,62.1,51.8,63.4,56.9,50.7,99,84,63,30.11,30.05,7,2,11,0.00
2013-8-20,74.3,60.2,45.4,59.8,53.0,44.3,99,79,57,30.12,29.96,9,2,11,0.00
2013-8-21,77.9,61.1,46.2,59.9,53.2,44.8,99,78,47,29.99,29.85,7,2,11,0.00
2013-8-22,66.5,57.1,47.7,59.7,54.2,46.9,98,90,77,29.94,29.87,7,1,9,0.00
2013-8-23,70.0,61.9,58.0,61.1,58.7,56.7,98,90,69,29.94,29.90,8,1,10,0.01
2013-8-24,70.1,62.4,52.7,60.6,57.9,51.3,97,86,63,29.91,29.86,7,2,11,0.00
2013-8-25,71.3,58.7,51.3,60.5,55.0,50.4,98,89,64,29.93,29.88,4,0,6,0.00
2013-8-26,71.0,59.6,51.1,59.8,55.4,49.9,98,87,56,29.95,29.89,5,0,12,0.44
2013-8-27,73.0,64.9,60.4,65.9,62.0,59.8,99,91,74,29.93,29.82,6,1,9,0.20
2013-8-28,73.8,65.3,61.9,65.6,62.5,61.1,98,91,74,29.90,29.81,5,1,9,0.02
2013-8-29,68.0,63.8,60.7,66.2,62.9,60.1,99,97,92,30.07,29.82,3,0,12,0.45
2013-8-30,75.3,65.7,54.4,65.6,61.7,53.3,99,88,66,30.14,30.03,6,1,11,0.05
2013-8-31,77.5,61.8,52.4,65.4,57.5,51.9,99,87,59,30.03,29.87,6,1,12,0.00
2013-9-1,76.8,65.8,56.3,63.1,58.1,54.3,96,79,52,29.92,29.83,8,1,12,0.00
2013-9-2,72.9,64.7,51.7,64.2,59.6,50.4,97,85,56,29.93,29.84,6,1,11,0.03
2013-9-3,72.1,60.8,49.6,62.0,56.4,48.6,99,87,67,30.00,29.92,7,1,11,0.00
2013-9-4,71.1,61.9,54.5,62.6,58.7,53.1,98,90,71,30.05,29.98,5,1,7,0.00
2013-9-5,66.1,60.3,56.1,62.2,59.1,55.3,98,96,87,30.07,30.00,4,1,10,0.78
2013-9-6,67.3,62.5,57.8,63.1,60.5,57.1,99,93,77,30.14,30.06,5,1,10,0.05
2013-9-7,71.3,61.5,54.2,65.0,58.9,53.6,99,92,78,30.09,29.95,7,2,10,0.01
2013-9-8,78.0,63.8,58.1,67.6,60.8,57.5,99,91,69,30.05,29.97,10,2,15,0.00
2013-9-9,73.6,63.0,54.8,65.2,59.7,53.7,98,90,74,30.02,29.90,10,3,13,0.00
2013-9-10,79.7,64.1,52.8,67.4,59.4,52.3,99,86,62,29.91,29.74,8,2,11,0.00
2013-9-11,69.3,61.2,55.9,62.0,58.3,54.9,98,90,75,29.99,29.77,6,1,10,0.00
2013-9-12,69.0,61.3,58.3,62.7,58.9,56.6,98,92,77,29.99,29.95,6,1,10,0.01
2013-9-13,65.6,61.5,58.4,61.5,59.0,56.8,96,92,85,29.98,29.84,5,1,9,0.00
2013-9-14,64.8,60.8,58.7,61.5,59.1,57.6,97,94,89,29.85,29.74,6,1,8,0.00
2013-9-15,62.6,60.0,58.8,61.3,59.0,57.7,98,97,92,29.89,29.74,4,0,7,0.11
2013-9-16,66.8,61.0,58.3,62.8,59.3,57.7,98,94,83,29.98,29.89,6,1,10,0.06
2013-9-17,67.1,59.9,51.4,58.4,55.9,50.3,97,87,67,30.02,29.86,8,2,12,0.00
2013-9-18,68.9,57.7,48.6,59.8,53.5,47.2,99,87,64,30.09,29.98,7,1,10,0.04
2013-9-19,75.6,56.7,44.2,59.8,50.8,43.7,99,83,47,29.99,29.79,6,1,10,0.00
2013-9-20,62.3,55.2,46.4,60.8,54.3,45.3,98,97,92,29.79,29.64,1,0,3,0.23
2013-9-21,63.4,58.2,54.0,59.2,56.1,53.4,99,93,80,29.78,29.66,5,1,8,0.01
2013-9-22,63.4,57.4,54.5,60.9,56.3,53.9,99,96,88,29.86,29.68,7,1,11,0.62
2013-9-23,61.8,57.3,54.0,59.8,56.4,53.4,99,97,91,30.00,29.86,4,0,10,0.30
2013-9-24,58.6,53.3,49.0,56.6,52.3,48.5,99,96,88,29.98,29.87,5,0,9,0.48
2013-9-25,60.3,51.5,44.7,52.2,48.3,43.6,99,90,65,30.06,29.87,7,1,11,0.22
2013-9-26,64.1,50.4,40.5,55.9,46.9,40.0,99,89,64,30.18,30.05,8,1,12,0.00
2013-9-27,58.5,51.3,43.6,58.2,50.8,42.8,99,98,97,30.18,29.91,2,0,6,0.72
2013-9-28,61.6,58.4,52.7,59.7,57.3,51.9,99,96,92,29.91,29.55,8,2,22,1.59
2013-9-29,61.2,57.1,53.3,59.8,55.1,49.4,98,93,81,29.69,29.42,11,3,22,1.80
2013-9-30,59.7,54.9,50.6,56.4,51.9,49.2,98,90,78,30.00,29.65,10,2,24,0.40
2013-10-1,59.5,51.6,41.6,53.9,48.7,40.8,99,91,64,30.19,29.97,7,1,22,0.53
2013-10-2,56.6,46.7,40.2,53.1,45.7,39.7,99,96,82,30.20,30.07,6,0,22,0.23
2013-10-3,60.4,48.8,39.7,53.6,45.9,39.2,99,91,69,30.41,30.19,5,1,22,0.01
2013-10-4,68.4,50.9,39.3,56.7,47.1,38.8,99,88,58,30.42,30.31,6,1,22,0.01
2013-10-5,74.5,52.2,38.3,59.7,47.8,37.8,99,87,48,30.31,30.10,3,0,22,0.00
2013-10-6,72.3,53.0,35.3,61.3,47.2,34.6,99,84,32,30.10,29.99,7,1,22,0.04
2013-10-7,61.7,54.7,50.3,55.1,51.8,49.0,98,91,69,30.16,29.99,9,2,22,0.27
2013-10-8,54.6,50.0,43.3,53.0,49.1,42.8,99,97,87,30.17,30.00,5,0,22,0.38
2013-10-9,60.9,47.7,37.3,52.4,44.6,36.8,99,90,65,30.08,29.97,6,1,22,0.00
2013-10-10,60.2,48.7,42.6,53.8,46.8,41.5,98,93,77,30.10,29.95,5,1,22,0.02
2013-10-11,58.4,48.4,42.2,52.0,45.5,41.1,98,91,70,30.14,30.09,4,0,22,0.00
2013-10-12,59.1,48.5,41.8,53.6,46.8,41.0,99,94,78,30.16,30.06,3,0,8,0.11
2013-10-13,61.4,48.5,39.8,53.4,45.8,39.3,98,91,70,30.28,30.15,6,1,8,0.01
2013-10-14,65.3,48.5,38.1,54.2,44.9,37.6,99,89,58,30.33,30.24,5,1,7,0.00
2013-10-15,68.8,48.1,35.1,53.1,42.9,34.6,99,85,43,30.27,30.11,4,0,7,0.01
2013-10-16,65.2,47.5,36.1,53.8,43.9,35.4,99,89,57,30.15,30.09,6,1,9,0.00
2013-10-17,64.1,49.1,40.4,56.2,46.7,39.9,99,92,72,30.20,30.11,6,1,9,0.00
2013-10-18,70.5,49.4,38.2,55.9,45.6,37.7,98,88,55,30.14,30.04,6,1,8,0.01
2013-10-19,66.5,47.7,36.0,55.7,44.5,35.3,98,90,61,30.13,30.08,7,1,10,0.00
2013-10-20,62.7,49.8,43.4,56.0,48.2,42.9,99,94,78,30.13,30.05,9,2,12,0.00
2013-10-21,73.1,51.9,42.0,60.9,48.9,41.5,99,90,61,30.06,29.92,4,0,6,0.01
2013-10-22,62.2,49.7,42.5,56.7,48.4,41.6,99,95,79,30.03,29.98,6,1,9,0.00
2013-10-23,53.9,50.3,47.1,52.3,49.3,46.6,98,96,94,30.02,29.97,4,1,6,0.00
2013-10-24,54.4,50.6,47.3,52.1,49.3,46.5,97,95,92,30.10,29.99,5,0,8,0.00
2013-10-25,55.7,52.3,49.2,52.8,50.5,47.8,96,94,89,30.24,30.10,0,0,2,0.00
2013-10-26,58.8,50.3,43.4,52.0,47.5,42.3,98,91,76,30.27,30.16,6,1,8,0.00
2013-10-27,60.1,49.5,39.8,53.6,46.7,38.8,99,91,66,30.17,29.84,7,1,17,0.05
2013-10-28,60.9,44.4,33.1,49.3,37.6,31.8,98,81,37,29.90,29.77,7,1,10,0.00
2013-10-29,61.9,40.2,28.1,44.8,34.6,27.4,98,83,41,30.06,29.90,4,0,6,0.01
2013-10-30,60.9,43.1,28.3,48.0,38.5,27.3,98,86,48,30.17,30.05,4,0,6,0.00
2013-10-31,55.2,51.1,47.6,54.4,50.1,45.7,98,96,92,30.25,30.15,2,0,6,0.06
2013-11-1,64.5,53.3,41.4,57.3,51.1,40.9,99,93,75,30.26,29.87,3,0,4,0.13
2013-11-2,56.7,51.0,43.6,52.2,47.7,40.9,98,89,71,30.10,29.79,8,2,14,0.46
2013-11-3,49.2,44.3,39.8,47.8,43.5,39.0,98,97,93,30.18,30.09,2,0,6,0.47
2013-11-4,50.3,48.1,44.2,49.5,47.6,43.7,99,98,97,30.16,30.09,1,0,5,0.54
2013-11-5,55.1,52.9,49.7,54.6,52.4,49.2,99,98,97,30.23,30.08,3,0,4,0.86
2013-11-6,58.4,55.4,53.0,57.8,54.9,52.7,99,99,98,30.25,30.06,1,0,3,0.17
2013-11-7,55.5,52.0,48.4,55.2,50.5,46.7,99,95,78,30.15,29.92,8,1,16,0.73
2013-11-8,52.5,48.7,44.4,51.4,48.1,43.8,99,97,93,30.19,30.09,1,0,2,0.19
2013-11-9,52.5,46.2,40.4,50.4,45.4,39.9,99,97,90,30.09,30.00,1,0,2,0.01
2013-11-10,66.3,50.7,40.6,59.4,48.6,40.1,99,93,64,30.06,29.99,1,0,4,0.00
2013-11-11,64.2,53.1,42.8,56.8,49.3,42.0,98,88,68,30.07,29.95,2,0,7,0.00
2013-11-12,57.1,53.8,50.5,55.8,53.0,48.7,98,97,93,30.42,30.05,2,0,4,0.35
2013-11-13,54.9,50.4,46.0,52.8,49.5,45.5,99,97,92,30.46,30.29,3,0,6,0.00
2013-11-14,51.4,47.4,43.4,49.3,46.4,42.9,98,96,90,30.29,30.11,3,0,5,0.15
2013-11-15,51.0,45.2,39.7,50.2,44.5,39.2,99,97,96,30.12,29.63,9,1,17,0.26
2013-11-16,51.0,47.4,45.0,49.7,46.1,44.1,98,95,88,29.88,29.62,7,1,13,0.06
2013-11-17,52.8,48.9,45.3,51.6,48.0,44.8,99,97,90,29.99,29.88,4,0,7,0.22
2013-11-18,54.9,51.5,49.0,53.2,50.7,48.2,98,97,94,29.97,29.73,6,2,18,0.75
2013-11-19,54.2,48.3,40.3,53.4,44.8,32.5,97,88,69,30.02,29.70,5,2,11,0.71
2013-11-20,50.5,35.5,28.2,41.0,31.8,27.1,98,88,45,30.34,30.02,6,0,11,0.00
2013-11-21,47.7,31.0,23.6,39.6,28.7,22.6,97,92,56,30.50,30.34,3,0,8,0.01
2013-11-22,51.5,31.9,22.2,42.1,29.4,21.0,97,91,55,30.50,30.27,0,0,8,0.00
2013-11-23,60.1,34.9,25.1,46.4,31.8,24.1,98,90,42,30.28,30.08,0,0,8,0.00
2013-11-24,58.9,35.8,26.6,45.5,32.4,25.6,97,89,44,30.23,30.08,3,0,8,0.00
2013-11-25,57.9,35.9,26.0,47.8,33.4,25.0,98,91,51,30.29,30.23,3,0,8,0.01
2013-11-26,54.6,41.7,29.6,47.5,38.6,28.9,98,89,65,30.24,30.01,4,0,8,0.00
2013-11-27,61.1,42.0,31.4,49.9,38.4,30.6,98,88,54,30.00,29.88,2,0,8,0.00
2013-11-28,56.8,36.8,28.5,49.3,34.7,27.8,98,93,66,30.18,29.97,4,0,5,0.00
2013-11-29,48.8,38.9,29.5,46.0,37.8,28.8,98,96,87,30.34,30.18,1,0,3,0.01
2013-11-30,54.5,46.8,40.4,49.3,45.2,39.9,98,94,79,30.38,30.25,2,0,3,0.06
2013-12-1,54.6,53.1,48.8,53.8,52.3,48.2,98,97,95,30.25,30.00,9,4,17,0.99
2013-12-2,51.6,42.8,34.4,50.8,40.8,33.6,97,93,76,30.07,29.98,6,2,15,0.62
2013-12-3,45.6,35.2,27.4,41.1,32.8,26.4,98,91,64,30.25,30.05,3,0,7,0.02
2013-12-4,42.2,28.6,22.5,34.7,26.1,21.3,97,91,52,30.30,30.24,1,0,2,0.01
2013-12-5,37.6,26.4,17.8,29.3,23.0,16.3,97,88,59,30.28,30.09,0,0,1,0.00
2013-12-6,32.4,29.9,21.3,29.0,25.0,17.8,94,82,64,30.09,29.89,3,0,7,0.01
2013-12-7,33.2,21.3,13.9,22.2,16.7,11.9,94,84,48,30.42,30.05,4,0,6,0.02
2013-12-8,31.1,21.6,10.1,27.1,18.0,8.0,93,86,68,30.56,30.40,3,0,4,0.00
2013-12-9,39.7,27.6,16.4,34.0,25.1,14.7,95,91,69,30.58,30.50,2,0,4,0.01
2013-12-10,45.7,33.4,26.9,40.7,31.8,25.9,97,94,80,30.52,30.36,2,0,3,0.00
2013-12-11,50.8,31.2,23.5,39.9,28.8,22.5,97,91,62,30.36,30.16,2,0,4,0.00
2013-12-12,46.7,34.8,25.1,42.0,33.8,23.8,98,96,83,30.19,30.08,1,0,4,0.50
2013-12-13,50.1,43.0,36.8,49.8,42.5,36.3,99,98,97,30.42,30.19,0,0,3,0.14
2013-12-14,52.1,40.2,32.1,49.0,39.4,31.6,99,97,89,30.44,30.34,4,0,6,0.01
2013-12-15,51.4,45.2,39.5,51.0,44.7,39.0,99,98,98,30.45,30.40,3,0,4,0.04
2013-12-16,55.7,40.9,32.2,50.8,39.8,31.4,99,96,82,30.44,30.20,2,0,3,0.00
2013-12-17,46.3,37.6,29.8,44.2,36.8,29.3,99,97,91,30.22,30.16,6,1,7,0.01
2013-12-18,47.9,41.7,32.7,46.6,40.1,31.3,99,94,82,30.17,30.04,4,1,11,0.02
2013-12-19,40.9,32.2,27.0,38.6,31.2,26.3,98,96,87,30.31,30.13,1,0,3,0.00
2013-12-20,50.5,39.8,31.7,50.0,39.2,31.2,99,98,93,30.23,29.92,6,1,13,0.64
2013-12-21,51.0,48.0,46.0,49.3,47.1,45.5,98,97,91,30.26,29.98,6,1,12,0.06
2013-12-22,50.2,47.1,45.2,49.9,46.7,44.7,99,98,97,30.35,30.25,2,0,3,0.14
2013-12-23,50.8,46.1,38.8,50.5,45.6,38.3,99,98,94,30.54,30.34,4,0,10,0.29
2013-12-24,50.0,37.2,31.1,46.6,36.3,30.6,99,97,86,30.59,30.44,3,0,4,0.01
2013-12-25,48.8,35.1,30.1,45.4,34.1,29.6,99,96,85,30.45,30.33,3,0,5,0.00
2013-12-26,46.4,33.7,27.5,43.5,32.7,27.0,99,96,86,30.35,30.18,1,0,3,0.00
2013-12-27,52.3,38.1,29.2,46.6,36.9,28.7,99,96,78,30.37,30.15,4,0,9,0.01
2013-12-28,46.9,37.7,31.0,42.8,36.8,30.5,99,96,83,30.49,30.37,2,0,4,0.00
2013-12-29,46.6,34.3,29.0,44.1,33.5,28.4,99,97,90,30.44,30.24,2,0,3,0.00
2013-12-30,47.7,37.6,32.0,45.6,36.9,31.5,99,97,91,30.25,30.15,2,0,4,0.00
2013-12-31,54.2,40.3,34.6,49.1,39.3,34.1,99,96,81,30.32,30.23,1,0,3,0.00
2014-1-1,51.2,37.7,31.0,48.5,37.0,30.5,99,97,89,30.33,30.20,3,0,5,0.00
2014-1-2,57.7,41.3,32.1,51.9,40.0,31.6,99,96,67,30.23,30.07,2,0,3,0.18